sensor_id;sensor_type;location;lat;lon;timestamp;pressure;altitude;pressure_sealevel;temperature;humidity
77086;BME280;66014;53.134;18.006;2024-01-15T02:04:58;98446.11;;;1.68;90.67
77086;BME280;66014;53.134;18.006;2024-01-15T02:07:25;98437.08;;;1.63;90.44
77086;BME280;66014;53.134;18.006;2024-01-15T02:10:15;98429.72;;;1.53;90.73
77086;BME280;66014;53.134;18.006;2024-01-15T02:12:42;98424.21;;;1.46;91.18
77086;BME280;66014;53.134;18.006;2024-01-15T02:15:09;98419.96;;;1.40;91.33
77086;BME280;66014;53.134;18.006;2024-01-15T02:17:59;98421.48;;;1.36;91.41
77086;BME280;66014;53.134;18.006;2024-01-15T02:20:27;98414.34;;;1.31;91.42
77086;BME280;66014;53.134;18.006;2024-01-15T02:22:54;98414.91;;;1.29;91.28
77086;BME280;66014;53.134;18.006;2024-01-15T02:25:21;98409.94;;;1.29;91.50
77086;BME280;66014;53.134;18.006;2024-01-15T02:27:47;98407.82;;;1.27;91.29
77086;BME280;66014;53.134;18.006;2024-01-15T02:30:15;98403.56;;;1.27;91.49
77086;BME280;66014;53.134;18.006;2024-01-15T02:32:42;98400.70;;;1.26;91.53
77086;BME280;66014;53.134;18.006;2024-01-15T02:35:08;98396.83;;;1.24;91.55
77086;BME280;66014;53.134;18.006;2024-01-15T02:37:35;98392.06;;;1.23;91.52
77086;BME280;66014;53.134;18.006;2024-01-15T02:40:02;98395.73;;;1.22;91.52
77086;BME280;66014;53.134;18.006;2024-01-15T02:42:29;98391.10;;;1.21;91.25
77086;BME280;66014;53.134;18.006;2024-01-15T02:44:55;98384.48;;;1.21;91.24
77086;BME280;66014;53.134;18.006;2024-01-15T02:47:22;98381.14;;;1.21;91.09
77086;BME280;66014;53.134;18.006;2024-01-15T02:49:50;98380.09;;;1.21;91.15
77086;BME280;66014;53.134;18.006;2024-01-15T02:52:17;98377.87;;;1.21;91.00
77086;BME280;66014;53.134;18.006;2024-01-15T02:54:44;98370.07;;;1.22;91.10
77086;BME280;66014;53.134;18.006;2024-01-15T02:57:11;98370.14;;;1.21;91.10
77086;BME280;66014;53.134;18.006;2024-01-15T03:02:19;98356.38;;;1.21;91.14
77086;BME280;66014;53.134;18.006;2024-01-15T03:04:46;98355.59;;;1.20;91.23
77086;BME280;66014;53.134;18.006;2024-01-15T03:07:13;98354.30;;;1.19;91.15
77086;BME280;66014;53.134;18.006;2024-01-15T03:09:39;98350.31;;;1.17;91.36
77086;BME280;66014;53.134;18.006;2024-01-15T03:12:06;98348.58;;;1.17;91.61
77086;BME280;66014;53.134;18.006;2024-01-15T03:14:33;98348.83;;;1.15;91.37
77086;BME280;66014;53.134;18.006;2024-01-15T03:16:59;98343.98;;;1.13;91.69
77086;BME280;66014;53.134;18.006;2024-01-15T03:19:27;98332.92;;;1.10;91.92
77086;BME280;66014;53.134;18.006;2024-01-15T03:21:53;98333.14;;;1.07;92.00
77086;BME280;66014;53.134;18.006;2024-01-15T03:24:21;98322.11;;;1.03;92.25
77086;BME280;66014;53.134;18.006;2024-01-15T03:26:48;98320.14;;;0.99;92.54
77086;BME280;66014;53.134;18.006;2024-01-15T03:29:16;98314.67;;;0.95;92.72
77086;BME280;66014;53.134;18.006;2024-01-15T03:31:42;98317.85;;;0.93;93.17
77086;BME280;66014;53.134;18.006;2024-01-15T03:34:10;98309.69;;;0.91;93.36
77086;BME280;66014;53.134;18.006;2024-01-15T03:36:36;98306.62;;;0.88;93.47
77086;BME280;66014;53.134;18.006;2024-01-15T03:39:04;98308.06;;;0.88;93.22
77086;BME280;66014;53.134;18.006;2024-01-15T03:41:36;98295.73;;;0.86;93.44
77086;BME280;66014;53.134;18.006;2024-01-15T03:44:03;98302.25;;;0.86;93.49
77086;BME280;66014;53.134;18.006;2024-01-15T03:46:29;98296.34;;;0.84;93.44
77086;BME280;66014;53.134;18.006;2024-01-15T03:48:58;98294.21;;;0.81;94.11
77086;BME280;66014;53.134;18.006;2024-01-15T03:51:24;98288.14;;;0.78;93.95
77086;BME280;66014;53.134;18.006;2024-01-15T03:53:51;98284.98;;;0.75;94.12
77086;BME280;66014;53.134;18.006;2024-01-15T03:56:18;98283.90;;;0.72;94.32
77086;BME280;66014;53.134;18.006;2024-01-15T03:58:44;98279.77;;;0.68;94.61
77086;BME280;66014;53.134;18.006;2024-01-15T04:01:11;98271.51;;;0.66;94.78
77086;BME280;66014;53.134;18.006;2024-01-15T04:03:40;98274.27;;;0.65;94.97
77086;BME280;66014;53.134;18.006;2024-01-15T04:06:06;98267.15;;;0.63;94.95
77086;BME280;66014;53.134;18.006;2024-01-15T04:08:33;98269.14;;;0.63;95.26
77086;BME280;66014;53.134;18.006;2024-01-15T04:10:59;98268.88;;;0.62;95.34
77086;BME280;66014;53.134;18.006;2024-01-15T04:13:27;98267.71;;;0.61;95.71
77086;BME280;66014;53.134;18.006;2024-01-15T04:15:54;98264.33;;;0.62;95.36
77086;BME280;66014;53.134;18.006;2024-01-15T04:18:21;98266.86;;;0.61;95.42
77086;BME280;66014;53.134;18.006;2024-01-15T04:20:48;98261.11;;;0.59;95.61
77086;BME280;66014;53.134;18.006;2024-01-15T04:23:28;98260.90;;;0.58;95.48
77086;BME280;66014;53.134;18.006;2024-01-15T04:25:57;98269.36;;;0.59;95.38
77086;BME280;66014;53.134;18.006;2024-01-15T04:28:23;98267.23;;;0.61;95.01
77086;BME280;66014;53.134;18.006;2024-01-15T04:30:50;98258.77;;;0.63;94.61
77086;BME280;66014;53.134;18.006;2024-01-15T04:33:17;98254.54;;;0.65;93.17
77086;BME280;66014;53.134;18.006;2024-01-15T04:35:46;98249.33;;;0.66;92.26
77086;BME280;66014;53.134;18.006;2024-01-15T04:38:17;98239.41;;;0.68;91.55
77086;BME280;66014;53.134;18.006;2024-01-15T04:40:44;98239.79;;;0.69;91.57
77086;BME280;66014;53.134;18.006;2024-01-15T04:43:11;98241.48;;;0.71;91.24
77086;BME280;66014;53.134;18.006;2024-01-15T04:45:37;98241.46;;;0.72;91.44
77086;BME280;66014;53.134;18.006;2024-01-15T04:48:04;98237.96;;;0.73;91.59
77086;BME280;66014;53.134;18.006;2024-01-15T04:50:31;98242.88;;;0.73;91.81
77086;BME280;66014;53.134;18.006;2024-01-15T04:52:57;98237.89;;;0.72;91.79
77086;BME280;66014;53.134;18.006;2024-01-15T04:55:24;98234.90;;;0.71;92.25
77086;BME280;66014;53.134;18.006;2024-01-15T04:57:50;98236.25;;;0.69;92.44
77086;BME280;66014;53.134;18.006;2024-01-15T05:00:17;98234.95;;;0.68;92.32
77086;BME280;66014;53.134;18.006;2024-01-15T05:02:44;98239.92;;;0.68;92.34
77086;BME280;66014;53.134;18.006;2024-01-15T05:05:10;98244.41;;;0.68;92.07
77086;BME280;66014;53.134;18.006;2024-01-15T05:07:37;98241.63;;;0.68;91.60
77086;BME280;66014;53.134;18.006;2024-01-15T05:10:05;98238.13;;;0.67;91.59
77086;BME280;66014;53.134;18.006;2024-01-15T05:12:34;98240.60;;;0.65;91.29
77086;BME280;66014;53.134;18.006;2024-01-15T05:15:01;98238.03;;;0.63;90.80
77086;BME280;66014;53.134;18.006;2024-01-15T05:17:28;98237.71;;;0.61;90.64
77086;BME280;66014;53.134;18.006;2024-01-15T05:19:57;98242.27;;;0.59;90.43
77086;BME280;66014;53.134;18.006;2024-01-15T05:22:23;98239.46;;;0.58;90.15
77086;BME280;66014;53.134;18.006;2024-01-15T05:24:51;98243.08;;;0.55;89.55
77086;BME280;66014;53.134;18.006;2024-01-15T05:27:18;98241.15;;;0.52;89.59
77086;BME280;66014;53.134;18.006;2024-01-15T05:29:45;98241.55;;;0.49;89.68
77086;BME280;66014;53.134;18.006;2024-01-15T05:32:11;98238.38;;;0.49;89.23
77086;BME280;66014;53.134;18.006;2024-01-15T05:34:38;98242.73;;;0.51;89.65
77086;BME280;66014;53.134;18.006;2024-01-15T05:37:04;98237.77;;;0.52;89.73
77086;BME280;66014;53.134;18.006;2024-01-15T05:39:31;98232.95;;;0.53;89.29
77086;BME280;66014;53.134;18.006;2024-01-15T05:42:08;98229.11;;;0.54;89.48
77086;BME280;66014;53.134;18.006;2024-01-15T05:44:44;98226.16;;;0.55;89.42
77086;BME280;66014;53.134;18.006;2024-01-15T05:47:18;98222.52;;;0.57;89.21
77086;BME280;66014;53.134;18.006;2024-01-15T05:49:45;98224.35;;;0.57;89.07
77086;BME280;66014;53.134;18.006;2024-01-15T05:52:11;98225.38;;;0.58;88.64
77086;BME280;66014;53.134;18.006;2024-01-15T05:54:38;98226.60;;;0.57;88.82
77086;BME280;66014;53.134;18.006;2024-01-15T05:57:04;98224.39;;;0.55;88.84
77086;BME280;66014;53.134;18.006;2024-01-15T05:59:31;98220.02;;;0.54;89.02
77086;BME280;66014;53.134;18.006;2024-01-15T06:02:00;98216.95;;;0.53;88.77
77086;BME280;66014;53.134;18.006;2024-01-15T06:04:27;98219.20;;;0.53;88.50
77086;BME280;66014;53.134;18.006;2024-01-15T06:06:53;98219.23;;;0.55;88.56
77086;BME280;66014;53.134;18.006;2024-01-15T06:09:23;98217.95;;;0.55;88.76
77086;BME280;66014;53.134;18.006;2024-01-15T06:11:50;98212.99;;;0.55;89.16
77086;BME280;66014;53.134;18.006;2024-01-15T06:14:16;98210.69;;;0.53;89.52
77086;BME280;66014;53.134;18.006;2024-01-15T06:16:44;98212.18;;;0.52;89.63
77086;BME280;66014;53.134;18.006;2024-01-15T06:19:14;98205.85;;;0.52;90.13
77086;BME280;66014;53.134;18.006;2024-01-15T06:21:41;98213.08;;;0.51;90.13
77086;BME280;66014;53.134;18.006;2024-01-15T06:24:13;98207.58;;;0.50;90.54
77086;BME280;66014;53.134;18.006;2024-01-15T06:26:41;98209.91;;;0.49;90.42
77086;BME280;66014;53.134;18.006;2024-01-15T06:29:08;98207.69;;;0.49;90.21
77086;BME280;66014;53.134;18.006;2024-01-15T06:31:34;98207.05;;;0.50;90.23
77086;BME280;66014;53.134;18.006;2024-01-15T06:34:03;98200.64;;;0.51;90.34
77086;BME280;66014;53.134;18.006;2024-01-15T06:36:30;98199.58;;;0.53;89.92
77086;BME280;66014;53.134;18.006;2024-01-15T06:38:56;98204.27;;;0.54;89.50
77086;BME280;66014;53.134;18.006;2024-01-15T06:41:23;98204.96;;;0.56;89.55
77086;BME280;66014;53.134;18.006;2024-01-15T06:43:49;98205.32;;;0.58;89.16
77086;BME280;66014;53.134;18.006;2024-01-15T06:49:46;98202.60;;;0.62;88.50
77086;BME280;66014;53.134;18.006;2024-01-15T06:52:14;98194.68;;;0.62;88.64
77086;BME280;66014;53.134;18.006;2024-01-15T06:55:02;98195.66;;;0.63;88.56
77086;BME280;66014;53.134;18.006;2024-01-15T06:57:30;98192.62;;;0.63;88.26
77086;BME280;66014;53.134;18.006;2024-01-15T06:59:57;98193.23;;;0.64;88.82
77086;BME280;66014;53.134;18.006;2024-01-15T07:02:24;98185.14;;;0.64;88.66
77086;BME280;66014;53.134;18.006;2024-01-15T07:05:01;98179.30;;;0.64;88.42
77086;BME280;66014;53.134;18.006;2024-01-15T07:07:31;98187.14;;;0.63;88.34
77086;BME280;66014;53.134;18.006;2024-01-15T07:10:02;98188.98;;;0.65;88.45
77086;BME280;66014;53.134;18.006;2024-01-15T07:12:34;98187.70;;;0.65;88.58
77086;BME280;66014;53.134;18.006;2024-01-15T07:15:04;98181.19;;;0.67;88.59
77086;BME280;66014;53.134;18.006;2024-01-15T07:17:48;98188.38;;;0.70;88.50
77086;BME280;66014;53.134;18.006;2024-01-15T07:27:24;98190.72;;;0.63;90.66
77086;BME280;66014;53.134;18.006;2024-01-15T07:30:08;98209.77;;;0.61;90.95
77086;BME280;66014;53.134;18.006;2024-01-15T07:32:42;98201.80;;;0.59;91.39
77086;BME280;66014;53.134;18.006;2024-01-15T07:35:12;98202.33;;;0.59;91.31
77086;BME280;66014;53.134;18.006;2024-01-15T07:37:44;98198.84;;;0.61;91.17
77086;BME280;66014;53.134;18.006;2024-01-15T07:40:12;98199.33;;;0.63;91.08
77086;BME280;66014;53.134;18.006;2024-01-15T07:42:40;98201.89;;;0.64;90.99
77086;BME280;66014;53.134;18.006;2024-01-15T07:45:54;98196.88;;;0.66;90.78
77086;BME280;66014;53.134;18.006;2024-01-15T07:48:22;98190.39;;;0.68;90.57
77086;BME280;66014;53.134;18.006;2024-01-15T07:50:51;98195.41;;;0.69;90.59
77086;BME280;66014;53.134;18.006;2024-01-15T07:53:27;98193.20;;;0.72;90.15
77086;BME280;66014;53.134;18.006;2024-01-15T07:56:22;98195.34;;;0.74;89.90
77086;BME280;66014;53.134;18.006;2024-01-15T07:58:49;98189.02;;;0.78;89.62
77086;BME280;66014;53.134;18.006;2024-01-15T08:01:17;98197.23;;;0.82;89.44
77086;BME280;66014;53.134;18.006;2024-01-15T08:03:43;98190.08;;;0.84;89.33
77086;BME280;66014;53.134;18.006;2024-01-15T08:06:10;98190.09;;;0.87;88.76
77086;BME280;66014;53.134;18.006;2024-01-15T08:08:37;98186.36;;;0.88;88.44
77086;BME280;66014;53.134;18.006;2024-01-15T08:11:04;98191.68;;;0.91;88.54
77086;BME280;66014;53.134;18.006;2024-01-15T08:13:31;98182.06;;;0.94;88.28
77086;BME280;66014;53.134;18.006;2024-01-15T08:15:58;98176.20;;;0.95;88.02
77086;BME280;66014;53.134;18.006;2024-01-15T08:18:30;98188.12;;;0.94;87.58
77086;BME280;66014;53.134;18.006;2024-01-15T08:20:57;98182.92;;;0.92;87.59
77086;BME280;66014;53.134;18.006;2024-01-15T08:23:24;98182.54;;;0.91;87.69
77086;BME280;66014;53.134;18.006;2024-01-15T08:25:51;98179.73;;;0.89;88.53
77086;BME280;66014;53.134;18.006;2024-01-15T08:28:21;98177.15;;;0.87;88.55
77086;BME280;66014;53.134;18.006;2024-01-15T08:30:48;98173.04;;;0.86;88.40
77086;BME280;66014;53.134;18.006;2024-01-15T08:33:15;98180.27;;;0.88;87.85
77086;BME280;66014;53.134;18.006;2024-01-15T08:35:42;98178.19;;;0.91;87.41
77086;BME280;66014;53.134;18.006;2024-01-15T08:38:11;98183.09;;;0.93;87.01
77086;BME280;66014;53.134;18.006;2024-01-15T08:40:40;98176.15;;;0.99;86.85
77086;BME280;66014;53.134;18.006;2024-01-15T08:43:07;98178.81;;;1.10;86.36
77086;BME280;66014;53.134;18.006;2024-01-15T08:45:48;98174.61;;;1.17;86.09
77086;BME280;66014;53.134;18.006;2024-01-15T08:48:15;98170.80;;;1.23;85.92
77086;BME280;66014;53.134;18.006;2024-01-15T08:50:42;98170.42;;;1.28;84.61
77086;BME280;66014;53.134;18.006;2024-01-15T08:53:09;98167.92;;;1.32;84.90
77086;BME280;66014;53.134;18.006;2024-01-15T08:55:36;98169.14;;;1.35;84.76
77086;BME280;66014;53.134;18.006;2024-01-15T08:58:10;98172.91;;;1.40;84.41
77086;BME280;66014;53.134;18.006;2024-01-15T09:00:39;98172.92;;;1.36;84.35
77086;BME280;66014;53.134;18.006;2024-01-15T09:03:08;98175.92;;;1.34;84.52
77086;BME280;66014;53.134;18.006;2024-01-15T09:05:35;98172.61;;;1.34;84.81
77086;BME280;66014;53.134;18.006;2024-01-15T09:08:03;98162.46;;;1.37;84.95
77086;BME280;66014;53.134;18.006;2024-01-15T09:10:33;98158.20;;;1.46;85.25
77086;BME280;66014;53.134;18.006;2024-01-15T09:13:00;98156.62;;;1.68;84.69
77086;BME280;66014;53.134;18.006;2024-01-15T09:15:26;98159.32;;;1.80;84.43
77086;BME280;66014;53.134;18.006;2024-01-15T09:18:07;98156.13;;;1.77;84.47
77086;BME280;66014;53.134;18.006;2024-01-15T09:20:35;98155.73;;;1.65;84.77
77086;BME280;66014;53.134;18.006;2024-01-15T09:23:02;98152.77;;;1.58;84.96
77086;BME280;66014;53.134;18.006;2024-01-15T09:25:32;98151.84;;;1.50;85.18
77086;BME280;66014;53.134;18.006;2024-01-15T09:28:00;98151.58;;;1.45;85.44
77086;BME280;66014;53.134;18.006;2024-01-15T09:30:28;98150.80;;;1.41;85.68
77086;BME280;66014;53.134;18.006;2024-01-15T09:33:14;98145.18;;;1.46;85.58
77086;BME280;66014;53.134;18.006;2024-01-15T09:35:40;98139.20;;;1.55;84.93
77086;BME280;66014;53.134;18.006;2024-01-15T09:38:07;98140.13;;;1.63;84.85
77086;BME280;66014;53.134;18.006;2024-01-15T09:40:38;98141.64;;;1.62;84.49
77086;BME280;66014;53.134;18.006;2024-01-15T09:43:04;98146.45;;;1.64;84.32
77086;BME280;66014;53.134;18.006;2024-01-15T09:45:31;98143.38;;;1.62;84.20
77086;BME280;66014;53.134;18.006;2024-01-15T09:47:58;98139.95;;;1.56;83.76
77086;BME280;66014;53.134;18.006;2024-01-15T09:50:24;98143.97;;;1.53;83.84
77086;BME280;66014;53.134;18.006;2024-01-15T09:52:51;98150.34;;;1.49;84.22
77086;BME280;66014;53.134;18.006;2024-01-15T09:55:18;98156.96;;;1.39;86.35
77086;BME280;66014;53.134;18.006;2024-01-15T09:57:46;98152.33;;;1.22;88.70
77086;BME280;66014;53.134;18.006;2024-01-15T10:00:17;98160.95;;;1.09;89.32
77086;BME280;66014;53.134;18.006;2024-01-15T10:02:46;98155.51;;;1.04;89.61
77086;BME280;66014;53.134;18.006;2024-01-15T10:05:13;98148.45;;;1.05;90.04
77086;BME280;66014;53.134;18.006;2024-01-15T10:07:43;98151.15;;;1.03;89.40
77086;BME280;66014;53.134;18.006;2024-01-15T10:10:12;98152.55;;;1.06;88.81
77086;BME280;66014;53.134;18.006;2024-01-15T10:12:39;98162.36;;;1.08;88.69
77086;BME280;66014;53.134;18.006;2024-01-15T10:15:10;98156.30;;;1.10;88.63
77086;BME280;66014;53.134;18.006;2024-01-15T10:17:40;98157.73;;;1.20;87.92
77086;BME280;66014;53.134;18.006;2024-01-15T10:20:10;98157.08;;;1.38;87.58
77086;BME280;66014;53.134;18.006;2024-01-15T10:22:41;98158.19;;;1.54;87.35
77086;BME280;66014;53.134;18.006;2024-01-15T10:25:11;98157.23;;;1.60;86.75
77086;BME280;66014;53.134;18.006;2024-01-15T10:27:40;98152.95;;;1.65;86.22
77086;BME280;66014;53.134;18.006;2024-01-15T10:30:09;98151.96;;;1.76;85.74
77086;BME280;66014;53.134;18.006;2024-01-15T10:32:38;98146.44;;;1.86;84.33
77086;BME280;66014;53.134;18.006;2024-01-15T10:35:07;98150.54;;;1.92;84.12
77086;BME280;66014;53.134;18.006;2024-01-15T10:37:35;98147.46;;;1.90;82.83
77086;BME280;66014;53.134;18.006;2024-01-15T10:40:03;98138.98;;;1.88;82.95
77086;BME280;66014;53.134;18.006;2024-01-15T10:42:37;98138.35;;;1.88;82.99
77086;BME280;66014;53.134;18.006;2024-01-15T10:45:06;98140.19;;;1.85;83.34
77086;BME280;66014;53.134;18.006;2024-01-15T10:47:41;98139.13;;;1.82;81.99
77086;BME280;66014;53.134;18.006;2024-01-15T10:50:10;98139.79;;;1.83;82.53
77086;BME280;66014;53.134;18.006;2024-01-15T10:52:42;98140.54;;;1.88;83.56
77086;BME280;66014;53.134;18.006;2024-01-15T10:55:15;98143.94;;;1.93;83.34
77086;BME280;66014;53.134;18.006;2024-01-15T10:57:44;98138.12;;;1.95;83.30
77086;BME280;66014;53.134;18.006;2024-01-15T11:00:12;98134.66;;;1.93;83.73
77086;BME280;66014;53.134;18.006;2024-01-15T11:02:41;98133.27;;;1.90;83.31
77086;BME280;66014;53.134;18.006;2024-01-15T11:05:15;98141.63;;;1.82;83.10
77086;BME280;66014;53.134;18.006;2024-01-15T11:07:44;98145.49;;;1.69;84.19
77086;BME280;66014;53.134;18.006;2024-01-15T11:10:44;98149.38;;;1.56;85.87
77086;BME280;66014;53.134;18.006;2024-01-15T11:16:05;98146.24;;;1.12;88.64
77086;BME280;66014;53.134;18.006;2024-01-15T11:18:43;98145.83;;;1.00;89.01
77086;BME280;66014;53.134;18.006;2024-01-15T11:26:43;98152.02;;;0.90;90.01
77086;BME280;66014;53.134;18.006;2024-01-15T11:29:35;98151.85;;;0.87;90.07
77086;BME280;66014;53.134;18.006;2024-01-15T11:32:08;98155.17;;;0.83;90.66
77086;BME280;66014;53.134;18.006;2024-01-15T11:34:57;98151.46;;;0.81;90.94
77086;BME280;66014;53.134;18.006;2024-01-15T11:37:29;98152.27;;;0.80;91.37
77086;BME280;66014;53.134;18.006;2024-01-15T11:40:01;98147.65;;;0.94;90.99
77086;BME280;66014;53.134;18.006;2024-01-15T11:43:14;98141.65;;;1.12;90.02
77086;BME280;66014;53.134;18.006;2024-01-15T11:45:44;98142.65;;;1.30;88.87
77086;BME280;66014;53.134;18.006;2024-01-15T11:48:13;98140.10;;;1.36;87.75
77086;BME280;66014;53.134;18.006;2024-01-15T12:21:05;98139.14;;;2.41;77.72
77086;BME280;66014;53.134;18.006;2024-01-15T12:39:00;98159.20;;;2.20;80.55
77086;BME280;66014;53.134;18.006;2024-01-15T12:41:29;98154.33;;;2.14;78.72
77086;BME280;66014;53.134;18.006;2024-01-15T12:43:57;98157.83;;;2.03;77.63
77086;BME280;66014;53.134;18.006;2024-01-15T12:46:25;98157.42;;;1.90;77.46
77086;BME280;66014;53.134;18.006;2024-01-15T12:48:52;98157.04;;;1.82;77.60
77086;BME280;66014;53.134;18.006;2024-01-15T12:51:24;98155.73;;;1.75;75.39
77086;BME280;66014;53.134;18.006;2024-01-15T12:53:51;98149.02;;;1.70;74.89
77086;BME280;66014;53.134;18.006;2024-01-15T13:13:47;98165.81;;;1.38;74.60
77086;BME280;66014;53.134;18.006;2024-01-15T13:16:33;98163.15;;;1.37;75.35
77086;BME280;66014;53.134;18.006;2024-01-15T13:19:03;98167.19;;;1.34;75.07
77086;BME280;66014;53.134;18.006;2024-01-15T13:24:22;98167.77;;;1.28;76.12
77086;BME280;66014;53.134;18.006;2024-01-15T13:26:50;98168.75;;;1.22;77.95
77086;BME280;66014;53.134;18.006;2024-01-15T13:29:28;98163.73;;;1.19;78.91
77086;BME280;66014;53.134;18.006;2024-01-15T13:31:58;98173.54;;;1.14;79.01
77086;BME280;66014;53.134;18.006;2024-01-15T13:34:25;98172.81;;;1.10;78.87
77086;BME280;66014;53.134;18.006;2024-01-15T13:37:06;98181.23;;;1.05;79.02
77086;BME280;66014;53.134;18.006;2024-01-15T13:39:36;98180.42;;;1.02;79.66
77086;BME280;66014;53.134;18.006;2024-01-15T13:42:06;98186.61;;;0.98;80.23
77086;BME280;66014;53.134;18.006;2024-01-15T13:44:35;98183.77;;;0.94;80.42
77086;BME280;66014;53.134;18.006;2024-01-15T13:47:02;98178.45;;;0.90;79.95
77086;BME280;66014;53.134;18.006;2024-01-15T13:49:33;98180.98;;;0.87;79.88
77086;BME280;66014;53.134;18.006;2024-01-15T13:52:27;98194.67;;;0.84;80.45
77086;BME280;66014;53.134;18.006;2024-01-15T13:55:27;98194.48;;;0.85;80.17
77086;BME280;66014;53.134;18.006;2024-01-15T13:58:39;98203.90;;;0.85;80.07
77086;BME280;66014;53.134;18.006;2024-01-15T14:01:20;98205.40;;;0.85;80.37
77086;BME280;66014;53.134;18.006;2024-01-15T14:12:15;98213.09;;;0.85;80.89
77086;BME280;66014;53.134;18.006;2024-01-15T14:15:21;98220.20;;;0.86;81.15
77086;BME280;66014;53.134;18.006;2024-01-15T14:17:48;98223.76;;;0.87;81.28
77086;BME280;66014;53.134;18.006;2024-01-15T14:20:15;98231.41;;;0.87;81.64
77086;BME280;66014;53.134;18.006;2024-01-15T14:22:48;98230.15;;;0.84;81.33
77086;BME280;66014;53.134;18.006;2024-01-15T14:25:18;98229.98;;;0.77;81.06
77086;BME280;66014;53.134;18.006;2024-01-15T14:28:20;98236.94;;;0.65;79.61
77086;BME280;66014;53.134;18.006;2024-01-15T14:31:13;98237.23;;;0.58;79.91
77086;BME280;66014;53.134;18.006;2024-01-15T14:41:02;98239.45;;;0.37;79.33
77086;BME280;66014;53.134;18.006;2024-01-15T14:43:31;98248.30;;;0.31;79.70
77086;BME280;66014;53.134;18.006;2024-01-15T14:45:59;98259.33;;;0.26;79.91
77086;BME280;66014;53.134;18.006;2024-01-15T14:48:40;98256.27;;;0.24;80.19
77086;BME280;66014;53.134;18.006;2024-01-15T14:51:26;98261.00;;;0.22;80.26
77086;BME280;66014;53.134;18.006;2024-01-15T14:54:05;98258.60;;;0.20;80.42
77086;BME280;66014;53.134;18.006;2024-01-15T14:56:41;98263.30;;;0.19;79.87
77086;BME280;66014;53.134;18.006;2024-01-15T14:59:18;98263.45;;;0.17;80.07
77086;BME280;66014;53.134;18.006;2024-01-15T15:01:47;98263.23;;;0.16;80.20
77086;BME280;66014;53.134;18.006;2024-01-15T15:07:43;98268.16;;;0.16;79.05
77086;BME280;66014;53.134;18.006;2024-01-15T15:10:19;98273.55;;;0.16;78.80
77086;BME280;66014;53.134;18.006;2024-01-15T15:16:52;98278.15;;;0.18;78.08
77086;BME280;66014;53.134;18.006;2024-01-15T15:19:33;98281.52;;;0.20;78.04
77086;BME280;66014;53.134;18.006;2024-01-15T15:26:45;98290.11;;;0.20;76.88
77086;BME280;66014;53.134;18.006;2024-01-15T15:33:13;98312.42;;;0.19;76.00
77086;BME280;66014;53.134;18.006;2024-01-15T15:36:09;98313.83;;;0.18;76.11
77086;BME280;66014;53.134;18.006;2024-01-15T15:42:32;98319.30;;;0.15;76.74
77086;BME280;66014;53.134;18.006;2024-01-15T15:45:03;98320.39;;;0.13;76.34
77086;BME280;66014;53.134;18.006;2024-01-15T15:47:31;98317.95;;;0.12;76.58
77086;BME280;66014;53.134;18.006;2024-01-15T15:50:02;98330.30;;;0.07;76.31
77086;BME280;66014;53.134;18.006;2024-01-15T15:52:34;98342.88;;;0.01;76.64
77086;BME280;66014;53.134;18.006;2024-01-15T15:55:01;98340.95;;;-0.06;76.55
77086;BME280;66014;53.134;18.006;2024-01-15T15:57:28;98346.87;;;-0.12;76.32
77086;BME280;66014;53.134;18.006;2024-01-15T16:00:04;98351.89;;;-0.18;76.46
77086;BME280;66014;53.134;18.006;2024-01-15T16:02:52;98355.85;;;-0.24;75.75
77086;BME280;66014;53.134;18.006;2024-01-15T16:05:32;98355.44;;;-0.29;76.03
77086;BME280;66014;53.134;18.006;2024-01-15T16:07:59;98357.13;;;-0.35;76.19
77086;BME280;66014;53.134;18.006;2024-01-15T16:10:28;98362.60;;;-0.40;75.98
77086;BME280;66014;53.134;18.006;2024-01-15T16:13:07;98365.25;;;-0.47;75.76
77086;BME280;66014;53.134;18.006;2024-01-15T16:15:34;98372.63;;;-0.53;75.79
77086;BME280;66014;53.134;18.006;2024-01-15T16:18:02;98373.05;;;-0.56;75.63
77086;BME280;66014;53.134;18.006;2024-01-15T16:20:30;98378.05;;;-0.58;75.66
77086;BME280;66014;53.134;18.006;2024-01-15T16:27:08;98375.50;;;-0.57;75.62
77086;BME280;66014;53.134;18.006;2024-01-15T16:30:25;98380.23;;;-0.55;75.86
77086;BME280;66014;53.134;18.006;2024-01-15T16:33:22;98379.52;;;-0.53;75.30
77086;BME280;66014;53.134;18.006;2024-01-15T16:35:48;98383.27;;;-0.53;75.12
77086;BME280;66014;53.134;18.006;2024-01-15T16:38:14;98383.75;;;-0.54;75.68
77086;BME280;66014;53.134;18.006;2024-01-15T16:40:43;98388.70;;;-0.55;75.92
77086;BME280;66014;53.134;18.006;2024-01-15T16:43:22;98398.41;;;-0.56;75.25
77086;BME280;66014;53.134;18.006;2024-01-15T16:46:11;98397.66;;;-0.55;75.11
77086;BME280;66014;53.134;18.006;2024-01-15T16:48:37;98403.71;;;-0.57;74.79
77086;BME280;66014;53.134;18.006;2024-01-15T16:51:02;98402.95;;;-0.59;75.19
77086;BME280;66014;53.134;18.006;2024-01-15T16:53:34;98402.85;;;-0.63;75.79
77086;BME280;66014;53.134;18.006;2024-01-15T16:56:08;98406.17;;;-0.67;75.00
77086;BME280;66014;53.134;18.006;2024-01-15T16:58:33;98417.31;;;-0.66;74.95
77086;BME280;66014;53.134;18.006;2024-01-15T17:01:10;98417.77;;;-0.64;74.99
77086;BME280;66014;53.134;18.006;2024-01-15T17:03:40;98416.22;;;-0.63;75.01
77086;BME280;66014;53.134;18.006;2024-01-15T17:06:20;98418.13;;;-0.60;74.63
77086;BME280;66014;53.134;18.006;2024-01-15T17:08:49;98426.19;;;-0.57;75.01
77086;BME280;66014;53.134;18.006;2024-01-15T17:11:16;98432.61;;;-0.55;75.19
77086;BME280;66014;53.134;18.006;2024-01-15T17:13:52;98432.69;;;-0.52;75.41
77086;BME280;66014;53.134;18.006;2024-01-15T17:16:18;98434.18;;;-0.50;74.44
77086;BME280;66014;53.134;18.006;2024-01-15T17:18:45;98443.33;;;-0.49;73.45
77086;BME280;66014;53.134;18.006;2024-01-15T17:21:15;98436.54;;;-0.51;74.17
77086;BME280;66014;53.134;18.006;2024-01-15T17:23:42;98444.02;;;-0.52;74.23
77086;BME280;66014;53.134;18.006;2024-01-15T17:26:29;98443.74;;;-0.56;74.02
77086;BME280;66014;53.134;18.006;2024-01-15T17:28:56;98443.64;;;-0.60;73.51
77086;BME280;66014;53.134;18.006;2024-01-15T17:31:23;98448.48;;;-0.63;73.74